Time;durP1;ratioP1;P1;durP2;ratioP2;P2;SDS_P1;SDS_P2;PMS_P1;PMS_P2;Temp;Humidity;BMP_temperature;BMP_pressure;BME280_temperature;BME280_humidity;BME280_pressure;Samples;Min_cycle;Max_cycle;Signal;HPM_P1;HPM_P2
2023/03/22 00:02:25;;;;;;;;;;;;;;;10.46;91.81;94793.00;5113526;28;1917;-59
2023/03/22 00:04:51;;;;;;;;;;;;;;;10.57;90.24;94781.09;5113649;28;1104;-59
2023/03/22 00:24:28;;;;;;;;;;;;;;;10.55;91.33;94787.47;5131708;27;1645;-58
2023/03/22 00:26:54;;;;;;;;;;;;;;;10.46;92.71;94785.00;5131487;27;1583;-58
2023/03/22 00:29:21;;;;;;;;;;;;;;;10.54;91.56;94782.28;5131342;27;1494;-59
2023/03/22 00:31:48;;;;;;;;;;;;;;;10.54;92.20;94776.94;5131504;27;1913;-59
2023/03/22 00:34:14;;;;;;;;;;;;;;;10.61;91.45;94783.28;5131306;27;1222;-59
2023/03/22 00:36:41;;;;;;;;;;;;;;;10.52;92.37;94782.44;5131543;27;1026;-58
2023/03/22 00:39:07;;;;;;;;;;;;;;;10.58;91.45;94780.94;5131256;27;1047;-58
2023/03/22 00:41:33;;;;;;;;;;;;;;;10.51;92.24;94785.31;5131177;27;1127;-59
2023/03/22 00:43:59;;;;;;;;;;;;;;;10.51;92.18;94782.66;5129926;28;1064;-57
2023/03/22 00:46:25;;;;;;;;;;;;;;;10.62;91.91;94790.28;5131181;27;1530;-58
2023/03/22 00:48:51;;;;;;;;;;;;;;;10.57;92.02;94787.31;5131141;27;1122;-58
2023/03/22 00:51:18;;;;;;;;;;;;;;;10.44;92.62;94782.47;5131204;27;1034;-59
2023/03/22 00:53:44;;;;;;;;;;;;;;;10.44;92.98;94792.34;5131153;27;1909;-59
2023/03/22 00:56:12;;;;;;;;;;;;;;;10.47;91.78;94787.50;5131112;27;960;-59
2023/03/22 00:58:38;;;;;;;;;;;;;;;10.52;91.54;94790.47;5130960;27;1034;-59
2023/03/22 01:01:06;;;;;;;;;;;;;;;10.48;92.21;94788.31;5131103;27;1012;-58
2023/03/22 01:03:32;;;;;;;;;;;;;;;10.40;92.96;94780.31;5131064;27;1051;-59
2023/03/22 01:05:58;;;;;;;;;;;;;;;10.50;92.13;94781.78;5131012;27;1011;-59
2023/03/22 01:08:24;;;;;;;;;;;;;;;10.52;91.29;94785.13;5130836;27;976;-59
2023/03/22 01:10:50;;;;;;;;;;;;;;;10.45;91.59;94781.50;5130770;27;1088;-59
2023/03/22 01:13:16;;;;;;;;;;;;;;;10.50;91.34;94779.13;5130820;27;1910;-59
2023/03/22 01:15:42;;;;;;;;;;;;;;;10.55;90.87;94778.63;5130914;27;1026;-59
2023/03/22 01:18:08;;;;;;;;;;;;;;;10.57;90.76;94776.63;5130745;27;1043;-59
2023/03/22 01:20:35;;;;;;;;;;;;;;;10.53;90.99;94772.63;5128896;27;1538;-59
2023/03/22 01:23:01;;;;;;;;;;;;;;;10.50;91.35;94771.09;5109834;28;1102;-59
2023/03/22 01:25:27;;;;;;;;;;;;;;;10.43;92.79;94774.63;5096428;28;960;-59
2023/03/22 01:27:53;;;;;;;;;;;;;;;10.32;92.29;94768.63;5096397;28;1312;-59
2023/03/22 01:30:19;;;;;;;;;;;;;;;10.29;93.15;94771.59;5096452;28;1063;-59
2023/03/22 01:32:45;;;;;;;;;;;;;;;10.32;92.69;94773.97;5096368;28;1992;-59
2023/03/22 01:35:11;;;;;;;;;;;;;;;10.37;92.22;94773.47;5096092;28;1032;-59
2023/03/22 01:37:37;;;;;;;;;;;;;;;10.26;93.06;94774.63;5096139;28;1033;-59
2023/03/22 01:40:04;;;;;;;;;;;;;;;10.19;93.31;94788.78;5096128;28;996;-59
2023/03/22 01:42:30;;;;;;;;;;;;;;;10.21;93.40;94786.81;5096022;28;1267;-59
2023/03/22 01:45:15;;;;;;;;;;;;;;;10.25;93.07;94780.97;5096253;28;1059;-59
2023/03/22 01:47:53;;;;;;;;;;;;;;;10.13;93.37;94783.16;5094781;28;1088;-58
2023/03/22 01:50:20;;;;;;;;;;;;;;;10.16;93.26;94782.78;5096252;28;1039;-59
2023/03/22 01:52:47;;;;;;;;;;;;;;;10.15;93.58;94777.63;5095849;28;1914;-59
2023/03/22 01:55:17;;;;;;;;;;;;;;;10.17;93.29;94789.00;5095997;28;988;-59
2023/03/22 01:57:43;;;;;;;;;;;;;;;10.10;93.75;94780.78;5095715;28;1053;-59
2023/03/22 02:00:14;;;;;;;;;;;;;;;10.10;93.72;94785.31;5095782;28;964;-59
2023/03/22 02:02:45;;;;;;;;;;;;;;;10.10;93.64;94790.66;5095833;28;1013;-59
2023/03/22 02:05:11;;;;;;;;;;;;;;;10.12;93.83;94791.31;5095694;28;1040;-59
2023/03/22 02:07:39;;;;;;;;;;;;;;;10.10;93.74;94790.66;5095504;28;1093;-59
2023/03/22 02:10:10;;;;;;;;;;;;;;;10.17;93.91;94794.34;5095783;28;1019;-59
2023/03/22 02:12:55;;;;;;;;;;;;;;;10.27;92.28;94786.97;5095558;28;1902;-59
2023/03/22 02:15:29;;;;;;;;;;;;;;;10.30;92.40;94793.81;5095331;28;1100;-59
2023/03/22 02:18:15;;;;;;;;;;;;;;;10.19;93.54;94799.47;5095335;28;1048;-59
2023/03/22 02:20:54;;;;;;;;;;;;;;;10.13;92.03;94804.50;5098038;28;1529;-59
2023/03/22 02:23:20;;;;;;;;;;;;;;;10.03;93.97;94800.31;5115633;28;1091;-59
2023/03/22 02:26:03;;;;;;;;;;;;;;;10.04;93.85;94810.03;5114429;28;1122;-59
2023/03/22 02:28:48;;;;;;;;;;;;;;;10.07;93.64;94809.66;5115791;28;1003;-59
2023/03/22 02:31:33;;;;;;;;;;;;;;;10.07;93.57;94807.84;5114501;28;980;-59
2023/03/22 02:34:23;;;;;;;;;;;;;;;10.09;93.21;94810.34;5115517;28;1909;-59
2023/03/22 02:37:08;;;;;;;;;;;;;;;10.07;93.21;94812.34;5114463;28;929;-59
2023/03/22 02:39:52;;;;;;;;;;;;;;;10.14;92.73;94808.00;5115246;28;1041;-59
2023/03/22 02:42:27;;;;;;;;;;;;;;;10.20;92.17;94815.34;5115494;28;1051;-60
2023/03/22 02:44:56;;;;;;;;;;;;;;;10.18;91.13;94814.69;5115464;28;984;-59
2023/03/22 02:47:43;;;;;;;;;;;;;;;10.20;91.06;94815.34;5115101;28;1004;-60
2023/03/22 02:50:13;;;;;;;;;;;;;;;10.12;91.35;94820.69;5115068;28;1215;-59
2023/03/22 02:52:40;;;;;;;;;;;;;;;10.12;91.61;94820.69;5115235;27;1918;-59
2023/03/22 02:55:06;;;;;;;;;;;;;;;9.99;91.61;94821.19;5115386;28;1020;-59
2023/03/22 02:57:32;;;;;;;;;;;;;;;9.97;92.34;94817.84;5114881;27;1301;-59
2023/03/22 02:59:59;;;;;;;;;;;;;;;10.09;91.20;94821.03;5115157;28;1021;-59
2023/03/22 03:02:27;;;;;;;;;;;;;;;10.11;90.61;94824.34;5115141;28;1040;-59
2023/03/22 03:04:55;;;;;;;;;;;;;;;10.09;89.65;94821.88;5115102;28;1043;-59
2023/03/22 03:07:23;;;;;;;;;;;;;;;10.13;89.23;94819.69;5114701;28;1080;-59
2023/03/22 03:09:50;;;;;;;;;;;;;;;10.01;89.50;94821.03;5115089;28;1007;-59
2023/03/22 03:12:19;;;;;;;;;;;;;;;9.95;89.89;94825.19;5113360;28;1988;-59
2023/03/22 03:14:45;;;;;;;;;;;;;;;10.00;88.65;94820.19;5114813;28;988;-59
2023/03/22 03:17:29;;;;;;;;;;;;;;;9.87;89.44;94827.88;5114480;28;1095;-59
2023/03/22 03:20:08;;;;;;;;;;;;;;;9.85;89.76;94833.38;5113286;28;1052;-58
2023/03/22 03:22:54;;;;;;;;;;;;;;;9.99;87.98;94833.72;5094754;28;1623;-59
2023/03/22 03:25:33;;;;;;;;;;;;;;;9.86;88.08;94836.84;5093780;28;1144;-59
2023/03/22 03:28:11;;;;;;;;;;;;;;;9.95;86.72;94826.03;5093086;28;1107;-59
2023/03/22 03:30:39;;;;;;;;;;;;;;;10.00;86.76;94822.88;5093885;28;1052;-59
2023/03/22 03:33:09;;;;;;;;;;;;;;;10.04;86.34;94829.53;5094195;28;2000;-59
2023/03/22 03:35:39;;;;;;;;;;;;;;;9.99;85.84;94831.03;5093007;28;957;-59
2023/03/22 03:38:08;;;;;;;;;;;;;;;9.92;86.90;94830.84;5094186;28;1076;-59
2023/03/22 03:40:36;;;;;;;;;;;;;;;9.88;87.80;94832.19;5093740;28;1068;-59
2023/03/22 03:43:03;;;;;;;;;;;;;;;9.83;86.81;94832.69;5094089;28;957;-59
2023/03/22 03:45:29;;;;;;;;;;;;;;;9.83;86.40;94840.69;5093931;28;1052;-59
2023/03/22 03:48:00;;;;;;;;;;;;;;;9.85;86.47;94841.38;5093496;28;968;-59
2023/03/22 03:50:26;;;;;;;;;;;;;;;9.82;86.87;94855.03;5093925;28;1043;-58
2023/03/22 03:52:53;;;;;;;;;;;;;;;9.75;87.48;94848.69;5093880;28;1905;-59
2023/03/22 03:55:20;;;;;;;;;;;;;;;9.75;87.01;94852.19;5093880;28;1044;-59
2023/03/22 03:57:46;;;;;;;;;;;;;;;9.82;85.84;94857.72;5093767;28;1190;-58
2023/03/22 04:00:16;;;;;;;;;;;;;;;9.84;85.54;94863.72;5092613;28;1035;-59
2023/03/22 04:02:42;;;;;;;;;;;;;;;9.71;87.59;94858.00;5094133;28;1008;-58
2023/03/22 04:05:09;;;;;;;;;;;;;;;9.65;87.29;94862.16;5093531;28;1082;-58
2023/03/22 04:07:35;;;;;;;;;;;;;;;9.66;87.93;94861.19;5092275;28;1578;-58
2023/03/22 04:10:02;;;;;;;;;;;;;;;9.70;86.92;94861.69;5093826;28;1281;-58
2023/03/22 04:12:28;;;;;;;;;;;;;;;9.63;87.60;94872.19;5093271;28;1993;-58
2023/03/22 04:14:54;;;;;;;;;;;;;;;9.67;86.89;94864.69;5093553;28;1059;-58
2023/03/22 04:17:21;;;;;;;;;;;;;;;9.62;88.12;94867.84;5093574;28;1031;-58
2023/03/22 04:19:47;;;;;;;;;;;;;;;9.62;87.58;94870.53;5093547;28;1083;-58
2023/03/22 04:22:17;;;;;;;;;;;;;;;9.62;87.60;94867.84;5108448;28;1651;-58
2023/03/22 04:24:49;;;;;;;;;;;;;;;9.63;86.93;94874.03;5114015;28;976;-57
2023/03/22 04:27:16;;;;;;;;;;;;;;;9.65;87.52;94872.03;5113511;28;1036;-58
2023/03/22 04:29:46;;;;;;;;;;;;;;;9.65;86.65;94872.03;5113473;28;961;-59
2023/03/22 04:32:17;;;;;;;;;;;;;;;9.66;86.72;94884.38;5113681;28;1984;-60
2023/03/22 04:34:45;;;;;;;;;;;;;;;9.63;88.02;94874.84;5113877;28;955;-59
2023/03/22 04:37:11;;;;;;;;;;;;;;;9.76;86.44;94882.41;5113648;28;1027;-59
2023/03/22 04:39:37;;;;;;;;;;;;;;;9.72;85.89;94878.38;5113558;28;1051;-59
2023/03/22 04:42:03;;;;;;;;;;;;;;;9.61;87.55;94881.34;5113483;28;1100;-60
2023/03/22 04:44:29;;;;;;;;;;;;;;;9.68;87.41;94877.88;5112141;28;1106;-59
2023/03/22 04:46:56;;;;;;;;;;;;;;;9.73;86.80;94877.38;5113704;28;1052;-59
2023/03/22 04:49:22;;;;;;;;;;;;;;;9.78;86.11;94872.38;5113370;28;1153;-59
2023/03/22 04:51:48;;;;;;;;;;;;;;;9.88;85.00;94873.06;5113332;28;1905;-60
2023/03/22 04:54:14;;;;;;;;;;;;;;;9.97;84.16;94872.09;5113408;28;1092;-58
2023/03/22 04:56:40;;;;;;;;;;;;;;;10.02;84.09;94879.63;5113699;28;1277;-58
2023/03/22 04:59:06;;;;;;;;;;;;;;;9.94;84.57;94877.78;5114239;28;1528;-58
2023/03/22 05:01:34;;;;;;;;;;;;;;;9.89;85.05;94876.59;5117543;28;976;-58
2023/03/22 05:04:00;;;;;;;;;;;;;;;9.88;85.11;94883.75;5117400;28;1064;-59
2023/03/22 05:06:26;;;;;;;;;;;;;;;9.88;85.21;94882.91;5117379;28;960;-58
2023/03/22 05:08:52;;;;;;;;;;;;;;;9.88;85.42;94883.75;5117080;28;1029;-58
2023/03/22 05:11:19;;;;;;;;;;;;;;;9.91;84.80;94883.44;5116130;28;1071;-59
2023/03/22 05:13:45;;;;;;;;;;;;;;;9.99;84.19;94884.47;5116897;28;1906;-59
2023/03/22 05:16:11;;;;;;;;;;;;;;;10.03;83.72;94886.63;5117193;28;1035;-59
2023/03/22 05:18:41;;;;;;;;;;;;;;;9.89;85.06;94884.59;5117139;28;1019;-59
2023/03/22 05:21:12;;;;;;;;;;;;;;;9.87;85.53;94881.28;5110847;28;1643;-58
2023/03/22 05:23:38;;;;;;;;;;;;;;;9.89;84.95;94882.75;5095163;28;1301;-58
2023/03/22 05:26:04;;;;;;;;;;;;;;;9.83;85.94;94880.75;5096356;28;1032;-59
2023/03/22 05:28:30;;;;;;;;;;;;;;;9.86;85.82;94882.25;5096467;28;1063;-59
2023/03/22 05:30:56;;;;;;;;;;;;;;;9.84;85.76;94882.41;5096236;28;1131;-59
2023/03/22 05:33:22;;;;;;;;;;;;;;;9.92;85.17;94882.44;5096110;28;1914;-58
2023/03/22 05:35:49;;;;;;;;;;;;;;;9.97;85.35;94882.78;5096553;28;1028;-58
2023/03/22 05:38:16;;;;;;;;;;;;;;;10.04;84.95;94882.97;5096238;28;1002;-58
2023/03/22 05:40:42;;;;;;;;;;;;;;;10.06;85.23;94877.47;5096385;28;1043;-60
2023/03/22 05:43:08;;;;;;;;;;;;;;;10.17;84.65;94871.81;5095974;28;1116;-60
2023/03/22 05:45:35;;;;;;;;;;;;;;;10.30;82.91;94881.97;5096165;28;1452;-59
2023/03/22 05:48:02;;;;;;;;;;;;;;;10.27;83.60;94883.16;5095910;28;1270;-58
2023/03/22 05:50:28;;;;;;;;;;;;;;;10.29;83.59;94889.16;5096192;28;1044;-59
2023/03/22 05:52:55;;;;;;;;;;;;;;;10.45;82.43;94884.88;5095984;28;2019;-58
2023/03/22 05:55:22;;;;;;;;;;;;;;;10.45;83.80;94892.88;5095764;28;1043;-58
2023/03/22 05:57:50;;;;;;;;;;;;;;;10.33;83.03;94895.88;5095971;28;1062;-58
2023/03/22 06:00:16;;;;;;;;;;;;;;;10.38;84.07;94895.41;5095880;28;988;-58
2023/03/22 06:02:43;;;;;;;;;;;;;;;10.32;84.05;94901.38;5096036;28;1051;-58
2023/03/22 06:05:11;;;;;;;;;;;;;;;10.35;84.19;94904.56;5095704;28;1134;-59
2023/03/22 06:07:37;;;;;;;;;;;;;;;10.43;82.86;94905.59;5095639;28;996;-65
2023/03/22 06:10:04;;;;;;;;;;;;;;;10.52;82.83;94902.75;5094224;28;1035;-59
2023/03/22 06:12:30;;;;;;;;;;;;;;;10.57;82.93;94907.59;5095494;28;1917;-59
2023/03/22 06:27:01;;;;;;;;;;;;;;;10.20;88.80;94927.56;5070632;28;1674;-59
2023/03/22 06:29:27;;;;;;;;;;;;;;;10.22;88.86;94916.72;5070412;28;1000;-59
2023/03/22 06:31:54;;;;;;;;;;;;;;;10.21;89.60;94920.41;5070264;28;1526;-60
2023/03/22 06:34:20;;;;;;;;;;;;;;;10.19;89.17;94915.22;5070054;28;1979;-59
2023/03/22 06:36:46;;;;;;;;;;;;;;;10.20;89.89;94921.41;5070457;28;1023;-59
2023/03/22 06:39:12;;;;;;;;;;;;;;;10.26;89.49;94934.94;5070312;28;973;-61
2023/03/22 06:41:38;;;;;;;;;;;;;;;10.24;89.77;94923.56;5070497;28;1044;-59
2023/03/22 06:44:04;;;;;;;;;;;;;;;10.20;90.85;94929.41;5070184;28;1081;-60
2023/03/22 06:46:30;;;;;;;;;;;;;;;10.19;90.65;94936.59;5070062;28;1044;-59
2023/03/22 06:48:56;;;;;;;;;;;;;;;10.28;90.01;94938.28;5069951;28;1623;-60
2023/03/22 06:51:22;;;;;;;;;;;;;;;10.33;89.16;94948.50;5069930;28;1033;-60
2023/03/22 06:53:48;;;;;;;;;;;;;;;10.30;89.54;94948.78;5070259;28;1008;-60
2023/03/22 06:56:14;;;;;;;;;;;;;;;9.97;91.11;94946.88;5070077;28;1997;-60
2023/03/22 06:58:40;;;;;;;;;;;;;;;9.94;92.09;94947.22;5070171;28;1035;-59
2023/03/22 07:01:06;;;;;;;;;;;;;;;10.08;91.74;94951.09;5069797;28;949;-58
2023/03/22 07:03:32;;;;;;;;;;;;;;;10.24;90.48;94950.28;5068680;28;1040;-58
2023/03/22 07:06:02;;;;;;;;;;;;;;;10.36;89.14;94953.53;5069683;28;1112;-59
2023/03/22 07:08:28;;;;;;;;;;;;;;;10.21;90.79;94947.94;5069762;28;1023;-58
2023/03/22 07:10:54;;;;;;;;;;;;;;;10.22;90.83;94952.28;5069881;28;961;-59
2023/03/22 07:13:20;;;;;;;;;;;;;;;10.07;92.41;94951.25;5069768;28;981;-59
2023/03/22 07:15:46;;;;;;;;;;;;;;;10.10;92.35;94951.75;5069363;28;1981;-59
2023/03/22 07:18:12;;;;;;;;;;;;;;;10.17;91.56;94959.97;5069272;28;1069;-58
2023/03/22 07:20:40;;;;;;;;;;;;;;;10.21;93.10;94969.31;5069376;28;1104;-59
2023/03/22 07:23:07;;;;;;;;;;;;;;;10.29;92.38;94972.00;5069193;28;1130;-59
2023/03/22 07:25:33;;;;;;;;;;;;;;;10.30;92.48;94962.16;5069150;28;1085;-59
2023/03/22 07:27:59;;;;;;;;;;;;;;;10.35;92.51;94973.22;5056263;28;1063;-58
2023/03/22 07:30:25;;;;;;;;;;;;;;;10.32;91.96;94977.06;5055854;28;1061;-59
2023/03/22 07:32:51;;;;;;;;;;;;;;;10.35;92.04;94982.06;5056086;28;1024;-59
2023/03/22 07:35:17;;;;;;;;;;;;;;;10.44;92.27;94984.78;5055806;28;1987;-58
2023/03/22 07:37:44;;;;;;;;;;;;;;;10.45;92.82;94989.09;5056162;28;1047;-59
2023/03/22 07:40:10;;;;;;;;;;;;;;;10.42;93.15;94992.13;5055862;28;1024;-59
2023/03/22 07:42:36;;;;;;;;;;;;;;;10.47;92.63;94992.44;5055216;28;1053;-61
2023/03/22 07:45:03;;;;;;;;;;;;;;;10.45;91.84;94997.97;5055334;28;1099;-61
2023/03/22 07:47:29;;;;;;;;;;;;;;;10.44;92.30;94993.63;5055542;28;1073;-61
2023/03/22 07:49:55;;;;;;;;;;;;;;;10.44;92.25;94996.28;5055754;28;1129;-61
2023/03/22 07:52:21;;;;;;;;;;;;;;;10.56;91.53;94996.81;5055577;28;1070;-61
2023/03/22 07:54:47;;;;;;;;;;;;;;;10.53;91.58;94999.84;5055321;28;1914;-62
2023/03/22 07:57:13;;;;;;;;;;;;;;;10.49;92.08;94998.47;5054173;28;1028;-61
2023/03/22 07:59:40;;;;;;;;;;;;;;;10.53;91.97;95006.00;5054832;28;1037;-61
2023/03/22 08:02:06;;;;;;;;;;;;;;;10.59;91.25;95004.50;5055318;28;1016;-61
2023/03/22 08:04:33;;;;;;;;;;;;;;;10.58;91.17;95002.81;5055469;28;981;-61
2023/03/22 08:06:59;;;;;;;;;;;;;;;10.74;90.27;95002.84;5055338;28;957;-62
2023/03/22 08:09:25;;;;;;;;;;;;;;;10.72;90.92;94999.53;5055087;28;1112;-62
2023/03/22 08:11:51;;;;;;;;;;;;;;;10.78;90.56;95011.38;5055249;28;1035;-61
2023/03/22 08:14:17;;;;;;;;;;;;;;;10.79;91.01;95002.34;5054924;28;2023;-61
2023/03/22 08:16:43;;;;;;;;;;;;;;;10.78;90.83;95002.53;5055020;28;1084;-62
2023/03/22 08:19:09;;;;;;;;;;;;;;;10.73;90.26;95005.69;5054999;28;1015;-61
2023/03/22 08:21:35;;;;;;;;;;;;;;;10.75;89.45;94999.16;5054971;28;1128;-61
2023/03/22 08:24:02;;;;;;;;;;;;;;;10.78;89.66;95002.53;5055115;28;1454;-61
2023/03/22 08:26:28;;;;;;;;;;;;;;;10.87;88.18;94996.16;5054670;28;1099;-61
2023/03/22 08:28:55;;;;;;;;;;;;;;;11.08;86.40;95004.53;5054678;28;1069;-62
2023/03/22 08:31:21;;;;;;;;;;;;;;;11.22;84.96;95000.34;5053684;28;949;-62
2023/03/22 08:33:47;;;;;;;;;;;;;;;11.15;84.09;95004.69;5053715;28;1040;-61
2023/03/22 08:36:15;;;;;;;;;;;;;;;11.13;84.04;95004.03;5053637;28;2056;-61
2023/03/22 08:38:41;;;;;;;;;;;;;;;11.13;84.76;95007.56;5053664;28;1235;-61
2023/03/22 08:41:07;;;;;;;;;;;;;;;11.16;84.65;95006.38;5054927;28;1186;-62
2023/03/22 08:43:34;;;;;;;;;;;;;;;11.19;84.39;95010.56;5054339;28;1104;-62
2023/03/22 08:46:00;;;;;;;;;;;;;;;11.18;84.18;95009.72;5054488;28;1356;-62
2023/03/22 08:48:27;;;;;;;;;;;;;;;11.22;83.91;95005.69;5054259;28;1029;-62
2023/03/22 08:50:54;;;;;;;;;;;;;;;11.23;84.79;95009.19;5054395;28;1057;-62
2023/03/22 08:53:20;;;;;;;;;;;;;;;11.25;84.49;95000.03;5053418;28;1028;-62
2023/03/22 08:55:46;;;;;;;;;;;;;;;11.33;82.94;95010.72;5054195;28;1910;-62
2023/03/22 08:58:12;;;;;;;;;;;;;;;11.41;82.10;95009.84;5054057;28;1041;-62
2023/03/22 09:00:40;;;;;;;;;;;;;;;11.44;81.48;95011.34;5053032;28;1045;-62
2023/03/22 09:03:06;;;;;;;;;;;;;;;11.43;80.67;95013.19;5054081;28;1077;-61
2023/03/22 09:05:32;;;;;;;;;;;;;;;11.45;81.26;95016.53;5054170;28;1028;-62
2023/03/22 09:07:58;;;;;;;;;;;;;;;11.49;81.38;95019.72;5054354;28;1041;-62
2023/03/22 09:10:24;;;;;;;;;;;;;;;11.52;82.27;95014.88;5052677;28;1088;-62
2023/03/22 09:12:50;;;;;;;;;;;;;;;11.60;82.44;95014.00;5053954;28;1081;-62
2023/03/22 09:15:16;;;;;;;;;;;;;;;11.64;81.34;95014.50;5054071;28;1902;-62
2023/03/22 09:17:42;;;;;;;;;;;;;;;11.63;81.06;95015.50;5053808;28;1100;-62
2023/03/22 09:20:09;;;;;;;;;;;;;;;11.45;81.99;95013.03;5052666;28;1231;-61
2023/03/22 09:22:35;;;;;;;;;;;;;;;11.50;81.49;95014.19;5053870;28;1031;-62
2023/03/22 09:25:01;;;;;;;;;;;;;;;11.55;81.11;95011.00;5053505;28;1315;-62
2023/03/22 09:27:27;;;;;;;;;;;;;;;11.57;80.81;95014.34;5052318;28;977;-59
2023/03/22 09:29:53;;;;;;;;;;;;;;;11.62;80.81;95017.34;5053747;28;1076;-61
2023/03/22 09:32:20;;;;;;;;;;;;;;;11.62;80.61;95009.31;5052273;28;1068;-62
2023/03/22 09:34:46;;;;;;;;;;;;;;;11.59;81.19;95020.38;5053704;28;1910;-61
2023/03/22 09:37:13;;;;;;;;;;;;;;;11.62;82.17;95019.19;5053796;28;1017;-60
2023/03/22 09:39:40;;;;;;;;;;;;;;;11.75;80.13;95016.00;5053551;28;1012;-61
2023/03/22 09:42:14;;;;;;;;;;;;;;;11.74;80.66;95017.81;5052169;28;1041;-61
2023/03/22 09:44:41;;;;;;;;;;;;;;;11.84;80.53;95014.97;5052235;28;1097;-62
2023/03/22 09:47:14;;;;;;;;;;;;;;;11.88;81.04;95011.75;5052434;28;962;-61
2023/03/22 09:49:43;;;;;;;;;;;;;;;11.95;80.42;95009.28;5052126;28;1017;-61
2023/03/22 09:52:12;;;;;;;;;;;;;;;12.03;81.48;95014.59;5053374;28;1008;-62
2023/03/22 09:54:39;;;;;;;;;;;;;;;12.12;81.34;95012.69;5053429;28;1910;-62
2023/03/22 09:57:05;;;;;;;;;;;;;;;12.14;81.03;95016.06;5053463;28;981;-61
2023/03/22 09:59:39;;;;;;;;;;;;;;;12.16;80.39;95022.09;5053132;28;1053;-61
2023/03/22 10:02:21;;;;;;;;;;;;;;;12.12;80.10;95018.06;5053487;28;1031;-61
2023/03/22 10:04:54;;;;;;;;;;;;;;;12.03;80.17;95014.59;5053196;28;1096;-61
2023/03/22 10:07:32;;;;;;;;;;;;;;;12.03;81.03;95019.13;5053046;28;1028;-62
2023/03/22 10:09:58;;;;;;;;;;;;;;;12.08;80.25;95022.09;5052295;28;1108;-62
2023/03/22 10:12:27;;;;;;;;;;;;;;;12.10;79.64;95023.63;5053146;28;973;-62
2023/03/22 10:14:57;;;;;;;;;;;;;;;12.13;81.45;95025.09;5052971;28;1991;-62
2023/03/22 10:17:25;;;;;;;;;;;;;;;12.10;80.72;95028.13;5052946;28;1048;-62
2023/03/22 10:20:00;;;;;;;;;;;;;;;12.22;80.16;95031.28;5052980;28;1072;-62
2023/03/22 10:22:29;;;;;;;;;;;;;;;12.21;80.77;95027.72;5051743;28;1028;-62
2023/03/22 10:24:56;;;;;;;;;;;;;;;12.14;80.06;95032.16;5052870;28;1368;-62
2023/03/22 10:27:25;;;;;;;;;;;;;;;12.14;80.77;95032.16;5053383;28;997;-62
2023/03/22 10:30:14;;;;;;;;;;;;;;;12.16;82.26;95035.47;5053215;28;976;-62
2023/03/22 10:32:45;;;;;;;;;;;;;;;12.14;82.29;95032.16;5052584;28;1306;-62
2023/03/22 10:35:14;;;;;;;;;;;;;;;12.22;81.92;95036.63;5052798;28;1905;-61
2023/03/22 10:37:41;;;;;;;;;;;;;;;12.28;80.44;95030.56;5053114;28;965;-61
2023/03/22 10:40:12;;;;;;;;;;;;;;;12.19;81.18;95034.28;5052792;28;1108;-62
2023/03/22 10:42:39;;;;;;;;;;;;;;;12.10;82.40;95031.66;5052744;28;1265;-62
2023/03/22 10:45:13;;;;;;;;;;;;;;;12.12;81.01;95026.09;5052980;28;1032;-62
2023/03/22 10:47:44;;;;;;;;;;;;;;;12.17;80.16;95026.41;5052743;28;1034;-61
2023/03/22 10:50:15;;;;;;;;;;;;;;;12.25;79.37;95017.50;5052915;28;965;-58
2023/03/22 10:53:00;;;;;;;;;;;;;;;12.26;79.11;95028.06;5052843;28;969;-54
2023/03/22 10:55:26;;;;;;;;;;;;;;;12.22;79.40;95021.38;5052770;28;1981;-58
2023/03/22 10:58:11;;;;;;;;;;;;;;;12.17;79.73;95018.38;5051766;28;993;-61
2023/03/22 11:00:37;;;;;;;;;;;;;;;12.17;79.61;95018.38;5051610;28;933;-60
2023/03/22 11:03:04;;;;;;;;;;;;;;;12.16;80.17;95021.22;5055793;28;1020;-58
2023/03/22 11:05:30;;;;;;;;;;;;;;;12.24;79.15;95023.91;5056370;28;1092;-61
2023/03/22 11:07:57;;;;;;;;;;;;;;;12.24;79.15;95018.53;5056289;28;1036;-61
2023/03/22 11:10:26;;;;;;;;;;;;;;;12.26;79.55;95024.56;5056318;28;945;-61
2023/03/22 11:13:10;;;;;;;;;;;;;;;12.24;79.22;95018.53;5055005;28;1053;-60
2023/03/22 11:15:41;;;;;;;;;;;;;;;12.29;78.47;95016.13;5056064;28;2011;-62
2023/03/22 11:18:11;;;;;;;;;;;;;;;12.28;78.50;95015.31;5056408;28;952;-62
2023/03/22 11:20:41;;;;;;;;;;;;;;;12.24;78.18;95015.84;5056474;28;965;-62
2023/03/22 11:23:11;;;;;;;;;;;;;;;12.28;78.42;95009.13;5056348;28;1288;-62
2023/03/22 11:25:44;;;;;;;;;;;;;;;12.23;79.01;95006.13;5054704;28;1106;-62
2023/03/22 11:28:15;;;;;;;;;;;;;;;12.35;78.11;95007.41;5055970;28;965;-62
2023/03/22 11:30:56;;;;;;;;;;;;;;;12.30;77.39;95001.75;5055864;28;996;-62
2023/03/22 11:33:24;;;;;;;;;;;;;;;12.37;74.37;95002.72;5054893;28;1036;-62
2023/03/22 11:35:55;;;;;;;;;;;;;;;12.43;74.14;95006.53;5055977;28;1898;-62
2023/03/22 11:38:23;;;;;;;;;;;;;;;12.53;74.83;95001.78;5055984;28;1104;-62
2023/03/22 11:40:53;;;;;;;;;;;;;;;12.59;74.35;94993.00;5056116;28;993;-62
2023/03/22 11:43:21;;;;;;;;;;;;;;;12.78;74.33;94998.94;5055740;28;1021;-63
2023/03/22 11:45:49;;;;;;;;;;;;;;;12.83;74.82;94997.38;5054683;28;1032;-62
2023/03/22 11:48:17;;;;;;;;;;;;;;;12.92;74.55;94997.31;5055799;28;1071;-62
2023/03/22 11:50:44;;;;;;;;;;;;;;;13.09;74.64;94988.97;5055610;28;1053;-62
2023/03/22 11:53:18;;;;;;;;;;;;;;;13.28;72.06;94992.19;5055815;28;1012;-63
2023/03/22 11:55:46;;;;;;;;;;;;;;;13.31;71.95;94986.47;5055674;28;1902;-63
2023/03/22 11:58:25;;;;;;;;;;;;;;;13.15;72.02;94987.41;5055692;28;969;-63
2023/03/22 12:00:54;;;;;;;;;;;;;;;13.15;72.90;94981.22;5055594;28;1073;-62
2023/03/22 12:03:22;;;;;;;;;;;;;;;13.22;71.56;94985.69;5055372;28;1118;-61
2023/03/22 12:05:49;;;;;;;;;;;;;;;13.40;70.15;94980.00;5054308;28;1020;-61
2023/03/22 12:08:24;;;;;;;;;;;;;;;13.37;70.11;94984.91;5055133;28;1061;-62
2023/03/22 12:11:17;;;;;;;;;;;;;;;13.14;71.49;94979.53;5054400;28;996;-62
2023/03/22 12:13:46;;;;;;;;;;;;;;;13.29;71.15;94977.72;5053214;28;1171;-62
2023/03/22 12:16:14;;;;;;;;;;;;;;;13.37;71.57;94976.84;5055047;28;1985;-61
2023/03/22 12:18:46;;;;;;;;;;;;;;;13.59;71.73;94972.44;5055224;28;972;-61
2023/03/22 12:21:12;;;;;;;;;;;;;;;13.86;71.53;94970.94;5054118;28;1033;-62
2023/03/22 12:23:38;;;;;;;;;;;;;;;13.96;72.07;94973.34;5055239;28;1644;-62
2023/03/22 12:26:14;;;;;;;;;;;;;;;13.86;72.49;94976.31;5054987;28;1225;-61
2023/03/22 12:28:40;;;;;;;;;;;;;;;13.87;70.90;94964.56;5055595;28;1020;-64
2023/03/22 12:31:13;;;;;;;;;;;;;;;13.88;70.55;94973.47;5055093;28;1027;-62
2023/03/22 12:33:44;;;;;;;;;;;;;;;13.79;70.74;94970.88;5054858;28;993;-62
2023/03/22 12:36:14;;;;;;;;;;;;;;;13.88;69.71;94971.59;5054920;28;1915;-61
2023/03/22 12:38:44;;;;;;;;;;;;;;;14.19;68.43;94973.22;5054663;28;1120;-61
2023/03/22 12:41:13;;;;;;;;;;;;;;;14.32;67.69;94975.25;5054731;28;916;-62
2023/03/22 12:44:00;;;;;;;;;;;;;;;14.31;66.48;94973.59;5054748;28;914;-62
2023/03/22 12:46:28;;;;;;;;;;;;;;;14.20;68.42;94966.84;5054444;28;1045;-62
2023/03/22 12:49:08;;;;;;;;;;;;;;;14.24;67.47;94977.03;5054703;28;1151;-62
2023/03/22 12:51:35;;;;;;;;;;;;;;;14.14;67.16;94976.50;5054757;28;1040;-62
2023/03/22 12:54:01;;;;;;;;;;;;;;;14.05;68.13;94974.94;5054476;28;977;-62
2023/03/22 12:56:35;;;;;;;;;;;;;;;13.93;66.70;94969.19;5054248;28;1906;-63
2023/03/22 12:59:03;;;;;;;;;;;;;;;13.93;68.06;94971.88;5054552;28;1095;-63
2023/03/22 13:01:36;;;;;;;;;;;;;;;13.92;66.59;94961.31;5054276;28;1000;-62
2023/03/22 13:04:21;;;;;;;;;;;;;;;13.96;68.12;94965.28;5054463;28;953;-63
2023/03/22 13:06:50;;;;;;;;;;;;;;;13.94;67.54;94961.97;5054092;28;1105;-62
2023/03/22 13:09:17;;;;;;;;;;;;;;;13.84;68.67;94960.38;5054188;28;1577;-63
2023/03/22 13:11:45;;;;;;;;;;;;;;;13.78;68.66;94966.50;5054013;28;1049;-63
2023/03/22 13:14:12;;;;;;;;;;;;;;;13.58;68.99;94962.69;5054037;28;1028;-62
2023/03/22 13:16:50;;;;;;;;;;;;;;;13.53;69.50;94960.56;5054182;28;1981;-63
2023/03/22 13:19:25;;;;;;;;;;;;;;;13.61;68.98;94957.78;5053835;28;1093;-63
2023/03/22 13:22:11;;;;;;;;;;;;;;;13.56;66.48;94957.50;5053926;28;968;-62
2023/03/22 13:24:56;;;;;;;;;;;;;;;13.55;68.12;94952.34;5053346;28;1387;-63
2023/03/22 13:27:34;;;;;;;;;;;;;;;13.46;67.65;94954.25;5053857;28;1048;-61
2023/03/22 13:30:02;;;;;;;;;;;;;;;13.47;66.09;94958.63;5053673;28;1049;-64
2023/03/22 13:32:29;;;;;;;;;;;;;;;13.73;65.56;94955.47;5053940;28;1020;-64
2023/03/22 13:34:56;;;;;;;;;;;;;;;13.88;66.84;94955.47;5052687;28;1918;-62
2023/03/22 13:37:44;;;;;;;;;;;;;;;14.06;62.93;94952.41;5053884;28;1048;-59
2023/03/22 13:40:13;;;;;;;;;;;;;;;14.21;64.10;94963.97;5053569;28;1081;-62